| Date | Time | Temp. (oF) | Dew Point (oF) | Rel. Hum. (%) | Press. (in.) | Wind Dir. | Wind Speed (mph) | Hourly Rainfall (in.) |
|
|---|---|---|---|---|---|---|---|---|---|
| 1 | 05/10 | 00:00 | 56 | 54 | 96 | 29.66 | W | 1 | 0.00 |
| 2 | 05/09 | 23:00 | 57 | 55 | 95 | 29.67 | N | 0 | 0.00 |
| 3 | 05/09 | 22:00 | 57 | 54 | 92 | 29.70 | N | 2 | 0.04 |
| 4 | 05/09 | 21:00 | 59 | 55 | 89 | 29.71 | WSW | 0 | 0.03 |
| 5 | 05/09 | 20:00 | 61 | 55 | 82 | 29.69 | WNW | 6 | 0.02 |
| 6 | 05/09 | 19:00 | 67 | 53 | 63 | 29.67 | NW | 3 | 0.00 |
| 7 | 05/09 | 18:00 | 70 | 53 | 56 | 29.67 | NW | 5 | 0.00 |
| 8 | 05/09 | 17:00 | 71 | 53 | 54 | 29.68 | WNW | 6 | 0.00 |
| 9 | 05/09 | 16:00 | 72 | 55 | 57 | 29.69 | NW | 4 | 0.00 |
| 10 | 05/09 | 15:00 | 72 | 56 | 59 | 29.71 | SW | 5 | 0.00 |
| 11 | 05/09 | 14:00 | 71 | 54 | 56 | 29.73 | NE | 8 | 0.00 |
| 12 | 05/09 | 13:00 | 72 | 57 | 60 | 29.74 | NE | 3 | 0.00 |
| 13 | 05/09 | 12:00 | 70 | 53 | 57 | 29.76 | NNW | 4 | 0.00 |
| 14 | 05/09 | 11:00 | 69 | 55 | 63 | 29.78 | NW | 9 | 0.00 |
| 15 | 05/09 | 10:00 | 68 | 57 | 69 | 29.77 | W | 7 | 0.00 |
| 16 | 05/09 | 09:00 | 67 | 61 | 84 | 29.78 | NNE | 4 | 0.00 |
| 17 | 05/09 | 08:00 | 65 | 64 | 97 | 29.79 | W | 3 | 0.00 |
| 18 | 05/09 | 07:00 | 64 | 63 | 98 | 29.78 | WSW | 4 | 0.00 |
| 19 | 05/09 | 06:00 | 63 | 62 | 97 | 29.77 | SSW | 4 | 0.00 |
| 20 | 05/09 | 05:00 | 63 | 61 | 96 | 29.77 | WSW | 2 | 0.00 |
| 21 | 05/09 | 04:00 | 63 | 61 | 96 | 29.78 | SSW | 4 | 0.01 |
| 22 | 05/09 | 03:00 | 63 | 61 | 95 | 29.78 | SSW | 5 | 0.00 |
| 23 | 05/09 | 02:00 | 63 | 61 | 95 | 29.80 | SW | 3 | 0.00 |
| 24 | 05/09 | 01:00 | 62 | 60 | 95 | 29.81 | S | 3 | 0.00 |